Time;durP1;ratioP1;P1;durP2;ratioP2;P2;SDS_P1;SDS_P2;PMS_P1;PMS_P2;Temp;Humidity;BMP_temperature;BMP_pressure;BME280_temperature;BME280_humidity;BME280_pressure;Samples;Min_cycle;Max_cycle;Signal;HPM_P1;HPM_P2
2022/04/22 00:00:52;;;;;;;6.10;4.33;;;7.50;99.90;;;;;;5153434;27;20720;-47
2022/04/22 00:03:18;;;;;;;4.53;4.07;;;7.60;99.90;;;;;;5153524;27;20441;-47
2022/04/22 00:05:46;;;;;;;4.90;3.47;;;7.60;99.90;;;;;;5153196;27;21038;-47
2022/04/22 00:08:13;;;;;;;4.73;3.90;;;7.50;99.90;;;;;;5153372;27;20788;-47
2022/04/22 00:11:29;;;;;;;3.90;3.60;;;7.50;99.90;;;;;;5153253;27;20437;-46
2022/04/22 00:13:28;;;;;;;3.80;3.50;;;7.60;99.90;;;;;;5152638;27;20445;-46
2022/04/22 00:15:55;;;;;;;3.97;3.57;;;7.40;99.90;;;;;;5153394;27;20488;-47
2022/04/22 00:18:22;;;;;;;4.50;4.10;;;7.30;99.90;;;;;;5153169;27;20440;-46
2022/04/22 00:20:49;;;;;;;5.63;4.10;;;7.20;99.90;;;;;;5152923;27;20472;-47
2022/04/22 00:23:16;;;;;;;4.23;3.90;;;7.30;99.90;;;;;;5152897;27;20982;-46
2022/04/22 00:25:43;;;;;;;4.27;3.83;;;7.40;99.90;;;;;;5152902;27;20468;-46
2022/04/22 00:28:10;;;;;;;4.50;4.10;;;7.60;99.90;;;;;;5153000;27;20874;-46
2022/04/22 00:30:57;;;;;;;4.87;4.00;;;7.40;99.90;;;;;;5153316;27;20485;-46
2022/04/22 00:33:24;;;;;;;4.63;4.30;;;7.30;99.90;;;;;;5152910;27;20807;-46
2022/04/22 00:35:51;;;;;;;3.93;3.63;;;7.40;99.90;;;;;;5152636;27;20535;-47
2022/04/22 00:38:17;;;;;;;4.20;3.80;;;7.20;99.90;;;;;;5153245;27;20511;-46
2022/04/22 00:40:44;;;;;;;4.10;3.70;;;7.20;99.90;;;;;;5153068;27;20511;-47
2022/04/22 00:43:15;;;;;;;4.37;3.97;;;7.00;99.90;;;;;;5152757;27;20542;-46
2022/04/22 00:45:42;;;;;;;4.00;3.70;;;7.00;99.90;;;;;;5152668;27;20458;-46
2022/04/22 00:48:11;;;;;;;5.70;4.53;;;7.00;99.90;;;;;;5152806;27;20444;-46
2022/04/22 00:50:38;;;;;;;4.30;3.90;;;7.10;99.90;;;;;;5152737;27;20468;-46
2022/04/22 00:53:06;;;;;;;4.80;4.40;;;7.40;99.90;;;;;;5152922;27;20520;-47
2022/04/22 00:55:34;;;;;;;5.47;3.60;;;7.40;99.90;;;;;;5153033;27;20594;-47
2022/04/22 00:58:02;;;;;;;4.67;4.10;;;7.40;99.90;;;;;;5152690;27;20981;-46
2022/04/22 01:00:30;;;;;;;5.30;4.17;;;7.50;99.90;;;;;;5152759;27;20468;-46
2022/04/22 01:02:56;;;;;;;5.27;3.87;;;7.40;99.90;;;;;;5152728;27;20495;-46
2022/04/22 01:10:56;;;;;;;4.33;3.67;;;7.30;99.90;;;;;;5152749;27;20423;-46
2022/04/22 01:13:24;;;;;;;5.97;4.20;;;7.10;99.90;;;;;;5152370;27;20437;-46
2022/04/22 01:15:51;;;;;;;4.37;3.97;;;7.30;99.90;;;;;;5152648;27;20457;-46
2022/04/22 01:18:18;;;;;;;4.47;4.07;;;7.30;99.90;;;;;;5152572;27;20483;-46
2022/04/22 01:20:46;;;;;;;3.97;3.67;;;7.30;99.90;;;;;;5152483;27;20520;-46
2022/04/22 01:23:15;;;;;;;5.20;4.80;;;7.30;99.90;;;;;;5152255;27;20464;-47
2022/04/22 01:25:42;;;;;;;4.80;4.40;;;7.60;99.90;;;;;;5154955;27;20464;-46
2022/04/22 01:28:10;;;;;;;3.77;3.37;;;7.10;99.90;;;;;;5156613;27;20554;-46
2022/04/22 01:30:37;;;;;;;4.20;3.80;;;6.90;99.90;;;;;;5156519;27;20489;-46
2022/04/22 01:33:04;;;;;;;4.83;4.20;;;6.90;99.90;;;;;;5155992;27;20803;-47
2022/04/22 01:35:31;;;;;;;4.27;3.87;;;7.00;99.90;;;;;;5155623;27;20541;-46
2022/04/22 01:37:58;;;;;;;4.47;3.70;;;7.10;99.90;;;;;;5156349;27;20436;-46
2022/04/22 01:40:26;;;;;;;5.60;4.40;;;7.30;99.90;;;;;;5155911;27;20551;-47
2022/04/22 01:42:53;;;;;;;4.30;3.90;;;7.50;99.90;;;;;;5155892;27;20524;-46
2022/04/22 01:45:20;;;;;;;3.83;3.43;;;7.50;99.90;;;;;;5156090;27;20749;-46
2022/04/22 01:47:47;;;;;;;4.20;3.70;;;7.30;99.90;;;;;;5156117;27;20489;-46
2022/04/22 01:50:14;;;;;;;4.00;3.60;;;7.40;99.90;;;;;;5156001;27;20493;-46
2022/04/22 01:52:41;;;;;;;4.03;3.73;;;7.50;99.90;;;;;;5155872;27;20935;-46
2022/04/22 01:55:09;;;;;;;3.73;3.27;;;7.30;99.90;;;;;;5155913;27;20496;-46
2022/04/22 01:57:38;;;;;;;4.33;4.03;;;7.00;99.90;;;;;;5155798;27;20523;-46
2022/04/22 02:00:06;;;;;;;3.53;3.23;;;6.80;99.90;;;;;;5155660;27;20981;-46
2022/04/22 02:02:33;;;;;;;3.97;3.57;;;6.90;99.90;;;;;;5155663;27;20497;-46
2022/04/22 02:05:00;;;;;;;5.40;3.83;;;6.90;99.90;;;;;;5155784;27;20517;-46
2022/04/22 02:07:27;;;;;;;5.33;4.30;;;6.70;99.90;;;;;;5156051;27;20472;-46
2022/04/22 02:09:54;;;;;;;7.50;4.20;;;6.60;99.90;;;;;;5155665;27;20912;-46
2022/04/22 02:12:21;;;;;;;3.73;3.43;;;6.50;99.90;;;;;;5155539;27;20440;-47
2022/04/22 02:14:50;;;;;;;4.97;4.57;;;6.40;99.90;;;;;;5155490;27;20857;-46
2022/04/22 02:17:18;;;;;;;4.93;4.53;;;6.40;99.90;;;;;;5155498;27;20437;-46
2022/04/22 02:19:45;;;;;;;5.43;4.80;;;6.80;99.90;;;;;;5155600;27;20476;-46
2022/04/22 02:22:12;;;;;;;5.50;4.73;;;6.90;99.90;;;;;;5155236;27;20437;-46
2022/04/22 02:24:38;;;;;;;5.10;4.60;;;6.90;99.90;;;;;;5155292;27;20800;-46
2022/04/22 02:29:52;;;;;;;5.80;5.20;;;6.10;99.90;;;;;;5155543;27;20557;-46
2022/04/22 02:32:19;;;;;;;7.00;4.87;;;6.30;99.90;;;;;;5155351;27;20524;-46
2022/04/22 02:34:46;;;;;;;5.70;5.20;;;6.50;99.90;;;;;;5154807;27;20493;-46
2022/04/22 02:37:13;;;;;;;5.10;4.60;;;6.60;99.90;;;;;;5155154;27;20472;-46
2022/04/22 02:39:40;;;;;;;5.60;5.10;;;6.50;99.90;;;;;;5154906;27;20508;-46
2022/04/22 02:47:37;;;;;;;4.63;4.17;;;6.20;99.90;;;;;;5155050;27;20433;-46
2022/04/22 02:50:05;;;;;;;6.40;5.43;;;6.30;99.90;;;;;;5154902;27;20433;-46
2022/04/22 02:52:32;;;;;;;5.97;4.97;;;6.50;99.90;;;;;;5154974;27;20441;-46
2022/04/22 02:54:59;;;;;;;6.43;5.50;;;6.70;99.90;;;;;;5154817;27;20496;-46
2022/04/22 02:57:26;;;;;;;5.90;5.40;;;6.70;99.90;;;;;;5155004;27;20489;-46
2022/04/22 02:59:55;;;;;;;5.43;5.03;;;6.70;99.90;;;;;;5154617;27;20491;-46
2022/04/22 03:02:21;;;;;;;7.00;5.67;;;6.60;99.90;;;;;;5154554;27;20501;-46
2022/04/22 03:04:48;;;;;;;6.17;5.67;;;6.30;99.90;;;;;;5154562;27;20461;-46
2022/04/22 03:07:15;;;;;;;7.40;4.47;;;6.30;99.90;;;;;;5154804;27;20498;-46
2022/04/22 03:09:42;;;;;;;6.63;6.00;;;6.50;99.90;;;;;;5154668;27;20428;-46
2022/04/22 03:12:13;;;;;;;4.43;4.00;;;6.40;99.90;;;;;;5154540;27;20444;-46
2022/04/22 03:14:40;;;;;;;5.40;4.90;;;6.20;99.90;;;;;;5154708;27;20547;-46
2022/04/22 03:17:08;;;;;;;4.80;4.40;;;6.20;99.90;;;;;;5153996;27;20513;-46
2022/04/22 03:19:35;;;;;;;5.20;4.50;;;6.10;99.90;;;;;;5154496;27;20472;-46
2022/04/22 03:22:02;;;;;;;4.33;3.93;;;6.00;99.90;;;;;;5154751;27;20448;-46
2022/04/22 03:24:29;;;;;;;5.13;4.53;;;6.00;99.90;;;;;;5172837;22;20496;-45
2022/04/22 03:26:56;;;;;;;5.80;5.33;;;6.00;99.90;;;;;;5132954;27;20480;-48
2022/04/22 03:29:23;;;;;;;7.70;6.17;;;6.10;99.90;;;;;;5133191;27;20865;-45
2022/04/22 03:31:49;;;;;;;6.60;6.03;;;6.00;99.90;;;;;;5133664;27;20472;-46
2022/04/22 03:34:18;;;;;;;6.30;5.33;;;6.10;99.90;;;;;;5133103;27;20527;-45
2022/04/22 03:36:45;;;;;;;6.37;5.60;;;5.70;99.90;;;;;;5112108;28;20522;-45
2022/04/22 03:39:12;;;;;;;6.20;5.30;;;5.60;99.90;;;;;;5112590;28;20496;-49
2022/04/22 03:41:39;;;;;;;5.53;5.03;;;5.60;99.90;;;;;;5112722;28;20470;-45
2022/04/22 03:44:06;;;;;;;5.80;5.30;;;5.70;99.90;;;;;;5112648;28;20478;-49
2022/04/22 03:46:33;;;;;;;6.93;6.17;;;5.90;99.90;;;;;;5112340;28;21104;-45
2022/04/22 03:49:00;;;;;;;5.93;5.37;;;6.00;99.90;;;;;;5112302;28;20434;-48
2022/04/22 03:51:29;;;;;;;5.53;4.87;;;6.10;99.90;;;;;;5112604;28;20857;-45
2022/04/22 03:53:56;;;;;;;7.40;4.80;;;6.30;99.90;;;;;;5112282;28;20443;-45
2022/04/22 03:59:07;;;;;;;5.97;5.30;;;6.30;99.90;;;;;;5112735;28;20468;-46
2022/04/22 04:01:34;;;;;;;5.47;4.97;;;6.40;99.90;;;;;;5112391;28;20479;-45
2022/04/22 04:04:01;;;;;;;5.20;4.73;;;6.50;99.90;;;;;;5112195;28;20477;-48
2022/04/22 04:06:29;;;;;;;5.03;4.57;;;6.60;99.90;;;;;;5112100;28;20541;-45
2022/04/22 04:17:10;;;;;;;6.23;5.63;;;6.30;99.90;;;;;;5112391;28;20418;-45
2022/04/22 04:25:08;;;;;;;4.90;4.37;;;5.90;99.90;;;;;;5111718;28;20580;-50
2022/04/22 04:27:36;;;;;;;5.63;5.13;;;5.70;99.90;;;;;;5111989;28;20462;-49
2022/04/22 04:30:03;;;;;;;5.40;4.90;;;5.70;99.90;;;;;;5111881;28;20912;-45
2022/04/22 04:32:30;;;;;;;7.67;6.90;;;5.70;99.90;;;;;;5111572;28;20495;-47
2022/04/22 04:34:57;;;;;;;7.77;6.40;;;5.80;99.90;;;;;;5111494;28;20485;-45
2022/04/22 04:37:25;;;;;;;7.10;6.00;;;6.10;99.90;;;;;;5111384;28;20470;-48
2022/04/22 04:39:55;;;;;;;6.83;6.20;;;5.70;99.90;;;;;;5111779;28;20940;-46
2022/04/22 04:42:25;;;;;;;7.80;6.50;;;5.30;99.90;;;;;;5112007;28;20439;-46
2022/04/22 04:44:52;;;;;;;10.07;7.00;;;5.30;99.90;;;;;;5111871;28;20882;-45
2022/04/22 04:47:19;;;;;;;8.20;5.80;;;5.50;99.90;;;;;;5111757;28;20442;-45
2022/04/22 04:49:47;;;;;;;7.37;5.57;;;5.60;99.90;;;;;;5111783;28;20439;-47
2022/04/22 04:52:14;;;;;;;7.63;5.73;;;5.50;99.90;;;;;;5111305;28;20439;-45
2022/04/22 04:54:42;;;;;;;7.87;7.07;;;5.50;99.90;;;;;;5111661;28;20454;-45
2022/04/22 04:57:09;;;;;;;9.17;8.37;;;5.60;99.90;;;;;;5112058;28;20507;-45
2022/04/22 04:59:36;;;;;;;11.20;8.10;;;6.00;99.90;;;;;;5112765;28;20895;-45
2022/04/22 05:02:03;;;;;;;15.27;8.10;;;6.20;99.90;;;;;;5115204;28;20493;-45
2022/04/22 05:04:30;;;;;;;11.20;8.27;;;6.20;99.90;;;;;;5115318;28;20438;-45
2022/04/22 05:06:57;;;;;;;7.80;7.07;;;6.10;99.90;;;;;;5115721;28;20785;-46
2022/04/22 05:09:24;;;;;;;7.17;6.50;;;6.30;99.90;;;;;;5115733;28;20908;-45
2022/04/22 05:11:54;;;;;;;8.87;6.57;;;6.10;99.90;;;;;;5115505;28;21029;-46
2022/04/22 05:14:21;;;;;;;7.17;6.30;;;5.80;99.90;;;;;;5115229;28;20533;-47
2022/04/22 05:16:47;;;;;;;6.57;5.97;;;5.70;99.90;;;;;;5115402;28;20520;-48
2022/04/22 05:19:14;;;;;;;6.53;6.00;;;5.70;99.90;;;;;;5115181;28;21004;-44
2022/04/22 05:21:41;;;;;;;8.57;6.67;;;5.90;99.90;;;;;;5115119;28;20479;-45
2022/04/22 05:24:08;;;;;;;14.20;7.43;;;6.10;99.90;;;;;;5115080;28;20442;-47
2022/04/22 05:26:35;;;;;;;407.47;56.73;;;6.20;99.90;;;;;;5114788;28;20837;-45
2022/04/22 05:29:04;;;;;;;21.20;10.67;;;6.40;99.90;;;;;;5115034;28;20446;-45
2022/04/22 05:34:15;;;;;;;10.10;8.33;;;6.80;99.90;;;;;;5115047;28;20438;-48
2022/04/22 05:36:42;;;;;;;11.10;8.80;;;6.70;99.90;;;;;;5114234;28;20879;-45
2022/04/22 05:39:10;;;;;;;10.50;9.10;;;6.90;99.90;;;;;;5114920;28;20466;-45
2022/04/22 05:41:37;;;;;;;9.43;8.53;;;6.70;99.90;;;;;;5114662;28;20964;-45
2022/04/22 05:44:06;;;;;;;8.80;7.90;;;6.40;99.90;;;;;;5114884;28;20499;-46
2022/04/22 05:46:32;;;;;;;9.40;8.60;;;6.50;99.90;;;;;;5115111;28;20466;-45
2022/04/22 05:48:59;;;;;;;9.00;8.10;;;6.80;99.90;;;;;;5115110;28;20899;-44
2022/04/22 05:51:26;;;;;;;10.83;8.50;;;6.80;99.90;;;;;;5114830;28;20438;-47
2022/04/22 05:53:53;;;;;;;10.10;8.67;;;7.00;99.90;;;;;;5114399;28;20478;-45
2022/04/22 05:56:20;;;;;;;9.63;8.73;;;7.10;99.90;;;;;;5114327;28;20545;-49
2022/04/22 05:58:47;;;;;;;12.00;10.63;;;7.20;99.90;;;;;;5114537;28;20880;-45
2022/04/22 06:01:16;;;;;;;12.77;9.50;;;7.40;99.90;;;;;;5114540;28;20787;-45
2022/04/22 06:03:42;;;;;;;7.57;6.80;;;7.60;99.90;;;;;;5114485;28;20440;-50
2022/04/22 06:06:09;;;;;;;7.73;6.20;;;7.40;99.90;;;;;;5114350;28;20571;-45
2022/04/22 06:11:21;;;;;;;16.60;12.07;;;7.50;99.90;;;;;;5112333;28;20421;-45
2022/04/22 06:13:48;;;;;;;13.60;11.00;;;7.50;99.90;;;;;;5113076;28;20530;-45
2022/04/22 06:16:16;;;;;;;10.03;9.03;;;7.70;99.90;;;;;;5114138;28;20802;-45
2022/04/22 06:18:43;;;;;;;9.67;8.60;;;7.80;99.90;;;;;;5114514;28;20478;-45
2022/04/22 06:21:10;;;;;;;10.57;9.07;;;8.00;99.90;;;;;;5113735;28;21064;-46
2022/04/22 06:23:38;;;;;;;11.50;9.00;;;8.00;99.90;;;;;;5113960;28;20447;-44
2022/04/22 06:26:05;;;;;;;8.90;8.00;;;8.10;99.90;;;;;;5114004;28;20467;-45
2022/04/22 06:28:34;;;;;;;12.40;8.70;;;8.00;99.90;;;;;;5114122;28;20491;-49
2022/04/22 06:31:01;;;;;;;9.60;8.03;;;8.10;99.90;;;;;;5113866;28;20859;-45
2022/04/22 06:33:30;;;;;;;9.20;8.30;;;8.10;99.90;;;;;;5112660;28;20471;-45
2022/04/22 06:36:03;;;;;;;11.30;8.90;;;8.20;99.90;;;;;;5111650;28;20462;-46
2022/04/22 06:38:31;;;;;;;11.73;8.90;;;8.00;99.90;;;;;;5112535;28;20478;-45
2022/04/22 06:46:28;;;;;;;6.87;6.27;;;8.30;99.90;;;;;;5112367;28;21047;-45
2022/04/22 06:48:57;;;;;;;15.50;6.10;;;8.40;99.90;;;;;;5113364;28;20460;-45
2022/04/22 06:51:25;;;;;;;12.43;7.33;;;8.50;99.90;;;;;;5113681;28;20507;-46
2022/04/22 06:53:53;;;;;;;15.67;8.80;;;8.50;99.90;;;;;;5113436;28;20559;-46
2022/04/22 06:56:24;;;;;;;33.23;12.63;;;8.40;99.90;;;;;;5113314;28;20541;-45
2022/04/22 06:58:53;;;;;;;30.53;9.10;;;8.40;99.90;;;;;;5113868;28;20447;-43
2022/04/22 07:01:21;;;;;;;191.07;25.10;;;8.30;99.90;;;;;;5112753;28;20566;-44
2022/04/22 07:03:49;;;;;;;10.53;7.60;;;8.50;99.90;;;;;;5111373;28;20442;-49
2022/04/22 07:06:18;;;;;;;10.50;8.43;;;8.50;99.90;;;;;;5111795;28;20513;-44
2022/04/22 07:08:46;;;;;;;11.07;8.27;;;8.60;99.90;;;;;;5112047;28;21051;-44
2022/04/22 07:11:18;;;;;;;8.60;7.70;;;8.70;99.90;;;;;;5111796;28;20438;-48
2022/04/22 07:13:45;;;;;;;12.07;8.97;;;8.90;99.90;;;;;;5111472;28;20858;-49
2022/04/22 07:16:15;;;;;;;10.47;9.37;;;8.90;99.90;;;;;;5111533;28;20549;-46
2022/04/22 07:18:42;;;;;;;8.80;7.90;;;9.10;99.90;;;;;;5113582;28;20550;-46
2022/04/22 07:21:09;;;;;;;8.93;8.03;;;9.40;99.90;;;;;;5112862;28;20521;-44
2022/04/22 07:23:38;;;;;;;9.37;7.90;;;9.50;99.90;;;;;;5111621;28;20503;-44
2022/04/22 07:26:09;;;;;;;18.10;14.40;;;9.80;99.90;;;;;;5112285;28;20519;-44
2022/04/22 07:28:38;;;;;;;281.90;30.43;;;9.90;99.90;;;;;;5111384;28;20447;-46
2022/04/22 07:31:05;;;;;;;66.43;13.93;;;10.10;99.90;;;;;;5111711;28;20434;-45
2022/04/22 07:33:33;;;;;;;65.30;15.53;;;10.10;99.90;;;;;;5110807;28;20449;-50
2022/04/22 07:36:00;;;;;;;26.73;9.00;;;10.10;99.90;;;;;;5110521;28;20515;-44
2022/04/22 07:38:28;;;;;;;23.73;15.63;;;10.20;99.90;;;;;;5111178;28;20439;-44
2022/04/22 07:40:57;;;;;;;8.33;7.53;;;10.30;99.90;;;;;;5110973;28;20452;-46
2022/04/22 07:48:55;;;;;;;7.70;7.03;;;10.80;99.90;;;;;;5112359;28;20468;-43
2022/04/22 07:51:24;;;;;;;87.00;19.70;;;10.90;99.90;;;;;;5112485;28;20448;-44
2022/04/22 07:53:51;;;;;;;6.80;6.10;;;10.90;99.90;;;;;;5112433;28;20477;-43
2022/04/22 07:56:19;;;;;;;7.00;6.17;;;11.10;99.90;;;;;;5112171;28;20466;-47
2022/04/22 07:58:46;;;;;;;6.27;5.67;;;11.10;99.90;;;;;;5112197;28;20496;-46
2022/04/22 08:01:13;;;;;;;7.73;7.03;;;11.00;99.90;;;;;;5112336;28;20561;-44
2022/04/22 08:03:40;;;;;;;17.33;8.83;;;11.00;99.90;;;;;;5112352;28;20925;-43
2022/04/22 08:06:07;;;;;;;12.97;7.67;;;11.00;99.90;;;;;;5112093;28;20483;-44
2022/04/22 08:08:34;;;;;;;142.43;26.27;;;11.20;99.90;;;;;;5112007;28;20485;-44
2022/04/22 08:11:01;;;;;;;16.80;7.60;;;11.30;99.90;;;;;;5111953;28;20808;-47
2022/04/22 08:13:29;;;;;;;23.43;7.10;;;11.40;99.90;;;;;;5112158;28;20493;-44
2022/04/22 08:15:56;;;;;;;18.83;6.23;;;11.50;99.90;;;;;;5111903;28;20493;-44
2022/04/22 08:18:23;;;;;;;7.70;6.90;;;11.70;99.90;;;;;;5111311;28;20595;-44
2022/04/22 08:20:50;;;;;;;19.30;9.23;;;11.80;99.90;;;;;;5110341;28;20482;-44
2022/04/22 08:23:20;;;;;;;909.17;312.60;;;11.80;99.90;;;;;;5109924;28;20559;-46
2022/04/22 08:25:47;;;;;;;12.13;6.93;;;11.80;99.90;;;;;;5109978;28;20499;-45
2022/04/22 08:28:14;;;;;;;6.73;6.13;;;11.60;99.90;;;;;;5110355;28;20778;-44
2022/04/22 08:30:42;;;;;;;6.90;6.30;;;11.90;99.90;;;;;;5110194;28;20971;-44
2022/04/22 08:33:09;;;;;;;6.20;5.60;;;11.70;99.90;;;;;;5110022;28;20493;-46
2022/04/22 08:35:37;;;;;;;7.73;6.97;;;11.50;99.90;;;;;;5111425;28;20514;-44
2022/04/22 08:38:06;;;;;;;7.33;6.00;;;11.30;99.90;;;;;;5112172;28;20446;-44
2022/04/22 08:40:36;;;;;;;6.47;5.70;;;11.20;99.90;;;;;;5111910;28;20438;-46
2022/04/22 08:43:04;;;;;;;6.90;6.30;;;11.30;99.90;;;;;;5111310;28;20474;-46
2022/04/22 08:45:33;;;;;;;6.73;6.10;;;11.40;99.90;;;;;;5109920;28;20490;-44
2022/04/22 08:50:49;;;;;;;7.07;6.27;;;11.90;99.90;;;;;;5110088;28;20426;-44
2022/04/22 08:53:22;;;;;;;7.10;6.40;;;11.70;99.90;;;;;;5110219;28;20532;-45
2022/04/22 08:55:55;;;;;;;9.20;6.17;;;11.70;99.90;;;;;;5110023;28;20534;-44
2022/04/22 08:58:23;;;;;;;6.13;5.63;;;11.80;99.90;;;;;;5109873;28;20446;-47
2022/04/22 09:00:52;;;;;;;6.80;6.20;;;11.80;99.90;;;;;;5111813;28;20491;-45
2022/04/22 09:03:21;;;;;;;7.00;5.80;;;11.90;99.90;;;;;;5110973;28;20502;-44
2022/04/22 09:05:48;;;;;;;9.57;6.43;;;11.90;99.90;;;;;;5111203;28;20494;-44
2022/04/22 09:08:15;;;;;;;7.63;6.27;;;12.10;99.90;;;;;;5111391;28;20438;-44
2022/04/22 09:10:42;;;;;;;7.30;6.60;;;12.20;99.90;;;;;;5111319;28;20442;-45
2022/04/22 09:13:10;;;;;;;8.93;8.20;;;12.40;99.90;;;;;;5111142;28;20442;-45
2022/04/22 09:15:39;;;;;;;183.83;22.27;;;12.60;99.90;;;;;;5109740;28;20512;-45
2022/04/22 09:18:14;;;;;;;16.80;8.37;;;12.50;99.90;;;;;;5109905;28;20442;-46
2022/04/22 09:20:43;;;;;;;8.30;7.47;;;12.80;99.90;;;;;;5109749;28;20442;-46
2022/04/22 09:23:24;;;;;;;10.73;7.67;;;12.90;99.90;;;;;;5109362;28;20599;-45
2022/04/22 09:25:51;;;;;;;9.33;7.27;;;12.80;99.90;;;;;;5146126;22;20496;-46
2022/04/22 09:28:18;;;;;;;6.47;5.77;;;13.10;99.90;;;;;;5150872;27;20441;-44
2022/04/22 09:30:56;;;;;;;6.70;6.10;;;13.00;99.90;;;;;;5152068;27;20965;-45
2022/04/22 09:33:23;;;;;;;6.70;6.10;;;13.00;99.90;;;;;;5152049;27;20463;-43
2022/04/22 09:44:24;;;;;;;11.23;7.00;;;13.10;99.90;;;;;;5150647;27;20857;-43
2022/04/22 09:47:09;;;;;;;21.30;9.63;;;13.00;99.90;;;;;;5153995;27;20464;-43
2022/04/22 09:49:40;;;;;;;8.27;7.40;;;13.20;99.90;;;;;;5155145;27;20500;-44
2022/04/22 09:52:09;;;;;;;9.00;6.40;;;13.10;99.90;;;;;;5155747;27;20477;-43
2022/04/22 09:54:38;;;;;;;7.67;6.30;;;13.20;99.90;;;;;;5155716;27;20440;-44
2022/04/22 09:57:05;;;;;;;7.00;6.23;;;13.30;99.90;;;;;;5156142;27;20469;-44
2022/04/22 09:59:33;;;;;;;7.10;6.40;;;13.40;99.90;;;;;;5155317;27;20432;-45
2022/04/22 10:02:01;;;;;;;5.40;4.90;;;13.40;99.90;;;;;;5155423;27;20464;-44
2022/04/22 10:04:29;;;;;;;6.67;6.07;;;13.40;99.90;;;;;;5155278;27;20440;-43
2022/04/22 10:06:57;;;;;;;7.40;6.67;;;13.40;99.90;;;;;;5155166;27;20453;-44
2022/04/22 10:09:26;;;;;;;18.13;11.47;;;13.60;99.90;;;;;;5155903;27;20433;-44
2022/04/22 10:11:55;;;;;;;7.27;6.07;;;13.90;99.90;;;;;;5155269;27;20447;-43
2022/04/22 10:14:36;;;;;;;6.73;6.13;;;14.10;99.90;;;;;;5155213;27;20466;-44
2022/04/22 10:17:04;;;;;;;7.30;6.10;;;14.00;99.90;;;;;;5155680;27;20457;-44
2022/04/22 10:19:34;;;;;;;6.53;5.80;;;14.00;99.90;;;;;;5155201;27;20479;-45
2022/04/22 10:22:01;;;;;;;5.97;5.47;;;14.00;99.90;;;;;;5153996;27;20493;-43
2022/04/22 10:24:31;;;;;;;5.77;5.27;;;14.00;99.90;;;;;;5153865;27;20436;-44
2022/04/22 10:26:59;;;;;;;5.70;5.07;;;14.10;99.90;;;;;;5153614;27;20475;-44
2022/04/22 10:29:26;;;;;;;5.27;4.80;;;14.00;99.90;;;;;;5153699;27;20437;-43
2022/04/22 10:31:54;;;;;;;5.73;5.23;;;14.10;99.90;;;;;;5153769;27;20482;-44
2022/04/22 10:34:21;;;;;;;5.63;5.10;;;14.20;99.90;;;;;;5153689;27;20441;-44
2022/04/22 10:36:56;;;;;;;5.37;4.97;;;14.30;99.90;;;;;;5153827;27;20488;-44
2022/04/22 10:39:34;;;;;;;5.60;4.80;;;14.30;99.90;;;;;;5154617;27;20926;-44
2022/04/22 10:42:01;;;;;;;6.40;5.70;;;14.50;99.90;;;;;;5142934;27;20484;-43
2022/04/22 10:47:16;;;;;;;8.57;6.70;;;14.70;99.90;;;;;;5134084;27;20490;-44
2022/04/22 10:49:44;;;;;;;10.50;6.30;;;14.80;99.90;;;;;;5134307;27;20469;-43
2022/04/22 10:52:13;;;;;;;7.40;5.60;;;14.60;99.70;;;;;;5134225;27;20781;-43
2022/04/22 10:55:13;;;;;;;8.13;6.30;;;14.50;98.90;;;;;;5151426;27;20504;-43
2022/04/22 10:57:42;;;;;;;25.27;8.67;;;14.80;99.90;;;;;;5153476;27;20961;-44
2022/04/22 11:00:28;;;;;;;10.80;7.07;;;14.90;99.90;;;;;;5154535;27;20464;-44
2022/04/22 11:03:18;;;;;;;12.47;6.40;;;15.10;99.90;;;;;;5154611;27;20511;-44
2022/04/22 11:05:49;;;;;;;10.60;6.20;;;15.10;98.90;;;;;;5147356;27;20551;-44
2022/04/22 11:08:32;;;;;;;7.70;6.20;;;15.10;99.90;;;;;;5154794;27;20475;-45
2022/04/22 11:11:22;;;;;;;19.73;8.70;;;14.80;98.90;;;;;;5154023;27;20995;-44
2022/04/22 11:13:52;;;;;;;31.77;10.30;;;14.80;98.80;;;;;;5154404;27;20512;-44
2022/04/22 11:16:29;;;;;;;21.30;8.00;;;14.90;99.60;;;;;;5153992;27;20461;-45
2022/04/22 11:19:25;;;;;;;45.00;15.07;;;15.00;98.50;;;;;;5152783;27;20448;-44
2022/04/22 11:21:55;;;;;;;15.07;7.20;;;15.00;99.10;;;;;;5153293;27;20439;-44
2022/04/22 11:24:24;;;;;;;6.97;6.37;;;15.20;98.30;;;;;;5153874;27;20444;-44
2022/04/22 11:26:53;;;;;;;14.43;7.73;;;15.50;99.10;;;;;;5135385;27;21186;-44
2022/04/22 11:29:21;;;;;;;7.57;6.10;;;15.50;98.30;;;;;;5154083;27;20444;-45
2022/04/22 11:32:03;;;;;;;14.60;6.23;;;15.40;96.50;;;;;;5154179;27;20433;-44
2022/04/22 11:35:07;;;;;;;9.23;6.03;;;15.60;97.70;;;;;;5153882;27;20481;-44
2022/04/22 11:37:37;;;;;;;26.83;9.23;;;15.60;96.00;;;;;;5154298;27;20850;-45
2022/04/22 11:40:05;;;;;;;13.03;7.00;;;15.70;96.50;;;;;;5153012;27;20890;-44
2022/04/22 11:42:43;;;;;;;21.23;6.60;;;15.80;96.70;;;;;;5151904;27;20483;-45
2022/04/22 11:45:13;;;;;;;20.33;8.07;;;15.90;97.50;;;;;;5152585;27;20460;-44
2022/04/22 11:47:40;;;;;;;7.93;6.07;;;16.10;98.10;;;;;;5152222;27;20916;-44
2022/04/22 11:50:09;;;;;;;16.67;8.07;;;16.00;97.50;;;;;;5146268;27;20517;-44
2022/04/22 11:52:36;;;;;;;31.03;10.63;;;15.90;97.50;;;;;;5131274;27;20437;-43
2022/04/22 11:55:05;;;;;;;20.27;7.60;;;15.80;96.10;;;;;;5131803;27;20429;-44
2022/04/22 11:57:36;;;;;;;19.57;6.40;;;15.90;95.50;;;;;;5133239;27;20474;-44
2022/04/22 12:05:38;;;;;;;19.70;6.57;;;15.80;95.70;;;;;;5132518;27;20449;-44
2022/04/22 12:08:11;;;;;;;8.83;5.67;;;15.80;95.70;;;;;;5131244;27;20457;-43
2022/04/22 12:10:38;;;;;;;8.83;5.20;;;15.80;95.00;;;;;;5131205;27;20495;-44
2022/04/22 12:13:08;;;;;;;12.27;5.83;;;15.70;95.70;;;;;;5130721;27;20486;-43
2022/04/22 12:15:39;;;;;;;5.43;4.63;;;15.80;95.60;;;;;;5132882;27;20530;-44
2022/04/22 12:18:07;;;;;;;15.20;6.90;;;15.60;94.80;;;;;;5151684;27;20527;-44
2022/04/22 12:20:34;;;;;;;7.10;5.60;;;15.60;93.80;;;;;;5151777;27;20432;-44
2022/04/22 12:23:01;;;;;;;6.50;5.00;;;15.50;95.50;;;;;;5152747;27;20537;-43
2022/04/22 12:25:28;;;;;;;6.70;5.13;;;15.50;94.30;;;;;;5149977;27;20551;-43
2022/04/22 12:28:12;;;;;;;12.67;5.73;;;15.50;95.30;;;;;;5151918;27;20445;-43
2022/04/22 12:30:40;;;;;;;10.70;5.83;;;15.40;93.60;;;;;;5151509;27;21008;-44
2022/04/22 12:33:08;;;;;;;14.90;7.50;;;15.40;95.20;;;;;;5151051;27;20723;-43
2022/04/22 12:35:35;;;;;;;8.63;6.37;;;15.50;94.20;;;;;;5151262;27;20486;-43
2022/04/22 12:38:07;;;;;;;15.37;7.53;;;15.30;94.40;;;;;;5150642;27;21055;-43
2022/04/22 12:40:48;;;;;;;17.30;8.10;;;15.30;94.20;;;;;;5150738;27;20961;-44
2022/04/22 12:43:27;;;;;;;14.70;8.50;;;15.30;94.60;;;;;;5151297;27;20539;-43
2022/04/22 12:54:17;;;;;;;26.53;9.90;;;15.50;94.60;;;;;;5152671;27;20461;-45
2022/04/22 12:56:53;;;;;;;11.73;6.87;;;15.50;94.10;;;;;;5151197;27;20500;-44
2022/04/22 12:59:21;;;;;;;8.93;8.03;;;15.50;95.10;;;;;;5150904;27;20442;-43
2022/04/22 13:01:49;;;;;;;11.27;7.83;;;15.60;95.20;;;;;;5151056;27;20840;-43
2022/04/22 13:04:23;;;;;;;12.63;7.30;;;15.50;93.80;;;;;;5150730;27;20579;-43
2022/04/22 13:06:50;;;;;;;7.90;5.77;;;15.60;94.90;;;;;;5151667;27;20486;-43
2022/04/22 13:09:20;;;;;;;9.57;5.93;;;15.50;95.50;;;;;;5151195;27;20510;-44
2022/04/22 13:11:49;;;;;;;5.80;5.37;;;15.40;95.90;;;;;;5152072;27;20794;-43
2022/04/22 13:14:17;;;;;;;6.10;5.50;;;15.50;95.70;;;;;;5152692;27;20870;-44
2022/04/22 13:16:45;;;;;;;7.10;6.37;;;15.50;95.80;;;;;;5152454;27;20452;-43
2022/04/22 13:19:12;;;;;;;5.90;5.40;;;15.50;94.40;;;;;;5152651;27;20491;-44
2022/04/22 13:21:40;;;;;;;6.93;6.27;;;15.40;94.70;;;;;;5155539;27;20448;-44
2022/04/22 13:24:07;;;;;;;5.97;5.43;;;15.50;94.60;;;;;;5155765;27;20946;-43
2022/04/22 13:26:34;;;;;;;6.27;5.67;;;15.50;95.20;;;;;;5154596;27;20468;-44
2022/04/22 13:29:04;;;;;;;6.23;5.70;;;15.60;94.70;;;;;;5155066;27;20436;-44
2022/04/22 13:31:30;;;;;;;6.50;5.90;;;15.50;95.50;;;;;;5155069;27;20472;-44
2022/04/22 13:34:00;;;;;;;7.63;5.63;;;15.60;95.30;;;;;;5154435;27;20989;-44
2022/04/22 13:36:27;;;;;;;6.60;6.07;;;15.60;95.40;;;;;;5154646;27;20970;-43
2022/04/22 13:38:54;;;;;;;7.03;6.43;;;15.60;94.70;;;;;;5155130;27;20440;-44
2022/04/22 13:41:21;;;;;;;5.53;5.03;;;15.60;95.10;;;;;;5156458;27;20487;-44
2022/04/22 13:43:48;;;;;;;5.57;5.17;;;15.60;95.90;;;;;;5156154;27;20560;-44
2022/04/22 13:54:40;;;;;;;7.33;6.63;;;15.80;95.70;;;;;;5148160;27;20423;-43
2022/04/22 13:57:07;;;;;;;7.27;6.57;;;15.90;94.60;;;;;;5155491;27;20491;-43
2022/04/22 13:59:34;;;;;;;6.50;6.00;;;15.80;94.40;;;;;;5156108;27;20439;-44
2022/04/22 14:02:02;;;;;;;6.03;5.30;;;15.90;94.20;;;;;;5155840;27;20460;-44
2022/04/22 14:04:34;;;;;;;6.73;5.33;;;16.00;94.60;;;;;;5154837;27;20477;-43
2022/04/22 14:07:01;;;;;;;6.20;5.70;;;16.10;94.00;;;;;;5155421;27;20460;-43
2022/04/22 14:09:28;;;;;;;6.97;6.30;;;16.20;94.20;;;;;;5155703;27;20477;-43
2022/04/22 14:11:55;;;;;;;7.63;6.90;;;16.30;94.70;;;;;;5155099;27;20490;-44
2022/04/22 14:14:24;;;;;;;7.13;6.53;;;15.70;94.50;;;;;;5155583;27;20485;-44
2022/04/22 14:16:51;;;;;;;6.90;6.07;;;15.40;98.90;;;;;;5155301;27;20465;-44
2022/04/22 14:19:18;;;;;;;7.27;6.67;;;15.40;96.50;;;;;;5155934;27;20472;-44